createdAt,value
2022-08-10T00:00:57.615Z,58.93
2022-08-10T00:03:26.773Z,59.10
2022-08-10T00:05:56.621Z,59.39
2022-08-10T00:08:26.165Z,59.77
2022-08-10T00:10:54.494Z,59.71
2022-08-10T00:13:23.815Z,59.99
2022-08-10T00:15:54.920Z,59.92
2022-08-10T00:18:28.897Z,60.04
2022-08-10T00:21:05.296Z,60.22
2022-08-10T00:23:33.855Z,60.20
2022-08-10T00:26:02.217Z,60.56
2022-08-10T00:28:30.130Z,60.84
2022-08-10T00:30:58.156Z,61.05
2022-08-10T00:33:26.015Z,61.31
2022-08-10T00:35:53.833Z,61.33
2022-08-10T00:38:23.041Z,61.31
2022-08-10T00:40:51.140Z,61.66
2022-08-10T00:43:23.295Z,61.65
2022-08-10T00:45:59.041Z,61.85
2022-08-10T00:48:29.464Z,62.07
2022-08-10T00:50:58.618Z,62.13
2022-08-10T00:53:28.323Z,62.30
2022-08-10T00:56:35.203Z,62.61
2022-08-10T00:58:45.007Z,62.85
2022-08-10T01:02:09.108Z,63.08
2022-08-10T01:04:54.309Z,63.17
2022-08-10T01:07:00.219Z,63.38
2022-08-10T01:09:36.134Z,63.58
2022-08-10T01:12:47.587Z,63.79
2022-08-10T01:15:05.586Z,63.93
2022-08-10T01:17:50.319Z,64.16
2022-08-10T01:20:30.915Z,64.35
2022-08-10T01:23:32.526Z,64.34
2022-08-10T01:26:12.460Z,64.68
2022-08-10T01:29:08.856Z,64.89
2022-08-10T01:31:42.782Z,64.98
2022-08-10T01:34:14.575Z,65.28
2022-08-10T01:36:49.382Z,65.40
2022-08-10T01:39:23.988Z,65.64
2022-08-10T01:41:56.861Z,65.83
2022-08-10T01:44:30.348Z,66.11
2022-08-10T01:47:22.061Z,66.05
2022-08-10T01:49:51.641Z,66.47
2022-08-10T01:52:21.872Z,66.51
2022-08-10T01:54:52.071Z,66.89
2022-08-10T01:57:23.490Z,66.84
2022-08-10T02:00:02.082Z,66.81
2022-08-10T02:02:35.945Z,66.96
2022-08-10T02:05:06.090Z,66.91
2022-08-10T02:07:38.732Z,67.13
2022-08-10T02:10:11.780Z,67.43
2022-08-10T02:12:42.127Z,67.76
2022-08-10T02:15:14.414Z,67.91
2022-08-10T02:18:00.595Z,68.12
2022-08-10T02:20:34.644Z,68.23
2022-08-10T02:23:08.620Z,68.20
2022-08-10T02:25:41.034Z,68.32
2022-08-10T02:28:29.869Z,68.57
2022-08-10T02:31:02.561Z,68.68
2022-08-10T02:33:36.897Z,68.85
2022-08-10T02:36:08.198Z,68.73
2022-08-10T02:38:58.622Z,68.85
2022-08-10T02:45:00.820Z,68.72
2022-08-10T02:45:23.253Z,68.92
2022-08-10T02:47:22.717Z,69.28
2022-08-10T02:50:00.716Z,69.31
2022-08-10T02:52:36.690Z,69.59
2022-08-10T02:55:17.454Z,69.83
2022-08-10T02:58:12.880Z,69.72
2022-08-10T03:00:45.391Z,70.32
2022-08-10T03:03:19.113Z,70.45
2022-08-10T03:05:50.286Z,71.01
2022-08-10T03:08:22.681Z,70.97
2022-08-10T03:10:51.712Z,71.34
2022-08-10T03:13:21.654Z,71.48
2022-08-10T03:15:52.418Z,71.60
2022-08-10T03:18:22.695Z,71.76
2022-08-10T03:20:53.931Z,71.92
2022-08-10T03:23:25.120Z,71.97
2022-08-10T03:25:56.552Z,72.39
2022-08-10T03:28:32.728Z,72.93
2022-08-10T03:31:02.758Z,73.02
2022-08-10T03:33:34.532Z,73.47
2022-08-10T03:36:41.865Z,73.58
2022-08-10T03:38:52.796Z,73.54
2022-08-10T03:41:27.139Z,73.78
2022-08-10T03:43:59.842Z,73.76
2022-08-10T03:46:30.538Z,73.48
2022-08-10T03:49:01.381Z,73.17
2022-08-10T03:51:31.910Z,73.28
2022-08-10T03:54:02.905Z,73.30
2022-08-10T03:56:33.115Z,73.40
2022-08-10T03:59:02.425Z,73.05
2022-08-10T04:02:43.420Z,73.19
2022-08-10T04:04:23.636Z,73.32
2022-08-10T04:06:55.719Z,73.58
2022-08-10T04:09:25.179Z,73.44
2022-08-10T04:12:11.512Z,73.45
2022-08-10T04:14:49.690Z,73.52
2022-08-10T04:18:02.901Z,73.63
2022-08-10T04:20:12.902Z,74.57
2022-08-10T04:22:44.381Z,74.32
2022-08-10T04:25:14.621Z,73.21
2022-08-10T04:27:43.258Z,72.95
2022-08-10T04:30:12.456Z,73.10
2022-08-10T04:32:42.369Z,73.29
2022-08-10T04:35:11.945Z,73.67
2022-08-10T04:37:46.768Z,74.17
2022-08-10T04:40:29.056Z,74.67
2022-08-10T04:43:10.399Z,74.91
2022-08-10T04:45:48.894Z,75.26
2022-08-10T04:48:42.891Z,75.45
2022-08-10T04:51:17.130Z,76.10
2022-08-10T04:54:04.559Z,76.30
2022-08-10T04:56:41.347Z,76.73
2022-08-10T04:59:13.465Z,77.30
2022-08-10T05:02:22.251Z,77.79
2022-08-10T05:04:35.232Z,78.45
2022-08-10T05:07:10.744Z,79.19
2022-08-10T05:10:01.194Z,79.45
2022-08-10T05:12:29.527Z,79.43
2022-08-10T05:14:57.694Z,79.56
2022-08-10T05:17:25.745Z,79.58
2022-08-10T05:20:04.202Z,79.45
2022-08-10T05:22:39.540Z,79.67
2022-08-10T05:25:10.865Z,80.13
2022-08-10T05:27:41.491Z,80.47
2022-08-10T05:30:13.572Z,80.62
2022-08-10T05:32:57.959Z,80.68
2022-08-10T05:35:55.372Z,81.27
2022-08-10T05:38:18.784Z,82.07
2022-08-10T05:40:48.763Z,82.51
2022-08-10T05:43:21.247Z,82.12
2022-08-10T05:46:19.144Z,82.06
2022-08-10T05:48:55.249Z,81.86
2022-08-10T05:51:27.028Z,81.39
2022-08-10T05:54:01.060Z,81.32
2022-08-10T05:56:55.207Z,81.21
2022-08-10T06:00:32.895Z,80.54
2022-08-10T06:02:31.681Z,80.51
2022-08-10T06:05:06.264Z,80.29
2022-08-10T06:07:36.000Z,79.84
2022-08-10T06:10:10.070Z,79.84
2022-08-10T06:12:54.173Z,78.94
2022-08-10T06:15:51.892Z,78.72
2022-08-10T06:18:14.346Z,78.46
2022-08-10T06:20:43.603Z,78.31
2022-08-10T06:23:13.562Z,77.91
2022-08-10T06:26:12.027Z,77.56
2022-08-10T06:28:32.483Z,77.40
2022-08-10T06:31:02.956Z,77.41
2022-08-10T06:33:32.748Z,77.22
2022-08-10T06:36:02.411Z,76.88
2022-08-10T06:38:33.985Z,76.63
2022-08-10T06:41:09.027Z,75.97
2022-08-10T06:43:41.417Z,75.94
2022-08-10T06:46:16.637Z,75.47
2022-08-10T06:48:50.070Z,74.83
2022-08-10T06:51:23.868Z,74.82
2022-08-10T06:53:55.339Z,74.80
2022-08-10T06:56:37.844Z,74.46
2022-08-10T06:59:21.504Z,73.87
2022-08-10T07:01:55.500Z,73.43
2022-08-10T07:04:32.478Z,73.29
2022-08-10T07:07:03.940Z,73.00
2022-08-10T07:09:34.320Z,72.74
2022-08-10T07:12:07.571Z,72.26
2022-08-10T07:14:39.929Z,71.85
2022-08-10T07:17:16.123Z,71.46
2022-08-10T07:19:49.958Z,71.02
2022-08-10T07:23:27.155Z,71.16
2022-08-10T07:25:13.595Z,70.64
2022-08-10T07:28:00.303Z,70.04
2022-08-10T07:30:31.721Z,69.79
2022-08-10T07:33:02.522Z,69.61
2022-08-10T07:35:42.418Z,68.75
2022-08-10T07:38:18.391Z,68.69
2022-08-10T07:40:48.509Z,68.18
2022-08-10T07:43:18.814Z,67.92
2022-08-10T07:45:48.734Z,67.26
2022-08-10T07:48:21.159Z,66.91
2022-08-10T07:50:55.159Z,66.85
2022-08-10T07:53:27.526Z,65.96
2022-08-10T07:56:03.630Z,65.54
2022-08-10T07:58:48.332Z,64.84
2022-08-10T08:01:24.215Z,64.18
2022-08-10T08:04:05.648Z,63.74
2022-08-10T08:06:41.506Z,62.82
2022-08-10T08:09:10.164Z,62.55
2022-08-10T08:11:40.430Z,62.09
2022-08-10T08:14:10.218Z,61.32
2022-08-10T08:16:42.674Z,60.48
2022-08-10T08:19:37.474Z,59.58
2022-08-10T08:24:10.688Z,58.52
2022-08-10T08:24:53.801Z,57.26
2022-08-10T08:27:22.801Z,56.46
2022-08-10T08:29:52.814Z,55.44
2022-08-10T08:32:23.400Z,54.58
2022-08-10T08:34:57.586Z,53.39
2022-08-10T08:38:33.738Z,52.44
2022-08-10T08:40:19.690Z,52.23
2022-08-10T08:43:14.263Z,51.67
2022-08-10T08:46:02.337Z,51.57
2022-08-10T08:48:51.012Z,50.95
2022-08-10T08:52:07.203Z,50.29
2022-08-10T08:54:33.625Z,49.41
2022-08-10T08:57:07.289Z,48.67
2022-08-10T08:59:54.388Z,48.45
2022-08-10T09:02:40.485Z,47.58
2022-08-10T09:05:59.881Z,47.08
2022-08-10T09:08:52.842Z,46.35
2022-08-10T09:11:31.830Z,45.68
2022-08-10T09:14:06.335Z,44.90
2022-08-10T09:16:44.555Z,43.66
2022-08-10T09:19:36.256Z,43.10
2022-08-10T09:22:17.214Z,43.36
2022-08-10T09:24:55.256Z,42.95
2022-08-10T09:27:27.787Z,42.16
2022-08-10T09:29:57.919Z,41.86
2022-08-10T09:36:15.669Z,41.46
2022-08-10T09:36:19.791Z,40.45
2022-08-10T09:38:29.948Z,39.18
2022-08-10T09:41:13.313Z,38.19
2022-08-10T09:43:53.522Z,38.43
2022-08-10T09:46:42.517Z,38.30
2022-08-10T09:49:25.904Z,38.02
2022-08-10T09:52:13.871Z,37.24
2022-08-10T09:54:54.164Z,36.63
2022-08-10T09:57:55.101Z,35.40
2022-08-10T10:00:21.630Z,35.79
2022-08-10T10:03:01.582Z,35.74
2022-08-10T10:05:40.186Z,35.82
2022-08-10T10:08:28.180Z,35.80
2022-08-10T10:11:05.095Z,35.64
2022-08-10T10:14:01.821Z,35.00
2022-08-10T10:16:47.401Z,34.23
2022-08-10T10:19:44.499Z,34.46
2022-08-10T10:22:27.729Z,34.45
2022-08-10T10:25:02.834Z,33.78
2022-08-10T10:27:59.453Z,32.26
2022-08-10T10:30:37.678Z,31.80
2022-08-10T10:33:14.365Z,32.39
2022-08-10T10:35:49.022Z,32.09
2022-08-10T10:38:18.007Z,32.54
2022-08-10T10:40:53.890Z,32.36
2022-08-10T10:43:32.557Z,31.50
2022-08-10T10:46:12.728Z,31.76
2022-08-10T10:48:48.915Z,31.44
2022-08-10T10:51:22.610Z,31.53
2022-08-10T10:53:57.847Z,31.33
2022-08-10T10:56:36.503Z,30.02
2022-08-10T10:59:53.853Z,30.29
2022-08-10T11:02:18.622Z,30.63
2022-08-10T11:04:57.042Z,30.45
2022-08-10T11:07:33.798Z,30.47
2022-08-10T11:10:31.811Z,30.20
2022-08-10T11:14:22.958Z,30.25
2022-08-10T11:16:02.473Z,29.91
2022-08-10T11:18:55.526Z,30.06
2022-08-10T11:21:34.962Z,30.29
2022-08-10T11:24:47.742Z,29.92
2022-08-10T11:27:06.735Z,29.29
2022-08-10T11:29:45.313Z,29.57
2022-08-10T11:32:24.701Z,28.86
2022-08-10T11:35:10.610Z,28.96
2022-08-10T11:38:28.562Z,28.88
2022-08-10T11:40:43.250Z,28.26
2022-08-10T11:43:15.955Z,27.76
2022-08-10T11:45:52.361Z,27.11
2022-08-10T11:48:53.283Z,26.33
2022-08-10T11:51:26.348Z,25.73
2022-08-10T11:53:59.716Z,25.53
2022-08-10T11:56:34.464Z,26.78
2022-08-10T11:59:20.022Z,26.11
2022-08-10T12:01:51.795Z,26.76
2022-08-10T12:04:23.328Z,26.94
2022-08-10T12:06:56.089Z,26.70
2022-08-10T12:10:10.024Z,26.32
2022-08-10T12:12:14.966Z,25.68
2022-08-10T12:14:49.662Z,24.74
2022-08-10T12:17:21.465Z,24.63
2022-08-10T12:20:02.407Z,23.92
2022-08-10T12:22:39.892Z,23.28
2022-08-10T12:25:54.933Z,23.43
2022-08-10T12:28:10.334Z,22.45
2022-08-10T12:30:46.504Z,22.46
2022-08-10T12:33:22.189Z,22.33
2022-08-10T12:36:17.438Z,22.70
2022-08-10T12:38:58.208Z,22.73
2022-08-10T12:41:44.293Z,22.63
2022-08-10T12:44:15.893Z,21.93
2022-08-10T12:46:55.939Z,21.63
2022-08-10T12:49:31.563Z,22.24
2022-08-10T12:52:06.109Z,21.31
2022-08-10T12:54:37.981Z,21.01
2022-08-10T12:57:10.103Z,20.30
2022-08-10T12:59:43.343Z,20.70
2022-08-10T13:02:19.584Z,20.31
2022-08-10T13:04:51.686Z,20.54
2022-08-10T13:08:05.321Z,20.22
2022-08-10T13:10:18.262Z,19.84
2022-08-10T13:12:50.062Z,18.68
2022-08-10T13:15:43.237Z,20.12
2022-08-10T13:18:18.733Z,20.69
2022-08-10T13:20:51.966Z,20.62
2022-08-10T13:23:24.529Z,20.75
2022-08-10T13:25:57.803Z,19.71
2022-08-10T13:28:35.706Z,20.01
2022-08-10T13:31:11.381Z,20.21
2022-08-10T13:34:40.656Z,20.28
2022-08-10T13:36:38.978Z,19.21
2022-08-10T13:39:08.186Z,19.39
2022-08-10T13:41:41.074Z,19.54
2022-08-10T13:44:12.275Z,19.50
2022-08-10T13:46:42.318Z,19.27
2022-08-10T13:49:12.178Z,19.00
2022-08-10T13:51:56.753Z,19.03
2022-08-10T13:54:28.467Z,18.70
2022-08-10T13:56:58.896Z,18.68
2022-08-10T14:00:36.267Z,18.27
2022-08-10T14:02:26.115Z,17.55
2022-08-10T14:04:56.617Z,18.20
2022-08-10T14:07:27.229Z,18.07
2022-08-10T14:10:04.978Z,18.46
2022-08-10T14:12:36.569Z,18.94
2022-08-10T14:15:08.193Z,19.00
2022-08-10T14:17:42.592Z,18.44
2022-08-10T14:20:17.973Z,18.25
2022-08-10T14:22:49.000Z,17.32
2022-08-10T14:25:17.330Z,18.05
2022-08-10T14:28:01.797Z,17.80
2022-08-10T14:30:33.321Z,17.62
2022-08-10T14:33:04.879Z,18.20
2022-08-10T14:36:21.251Z,18.26
2022-08-10T14:38:29.014Z,18.08
2022-08-10T14:40:59.984Z,18.68
2022-08-10T14:43:35.921Z,17.68
2022-08-10T14:46:06.909Z,17.72
2022-08-10T14:48:39.354Z,17.97
2022-08-10T14:51:08.552Z,17.82
2022-08-10T14:53:38.009Z,17.87
2022-08-10T14:56:10.128Z,18.07
2022-08-10T14:59:06.017Z,18.64
2022-08-10T15:02:01.289Z,18.58
2022-08-10T15:04:24.926Z,18.96
2022-08-10T15:06:56.236Z,19.33
2022-08-10T15:09:59.171Z,19.56
2022-08-10T15:12:26.387Z,19.19
2022-08-10T15:15:01.156Z,19.61
2022-08-10T15:17:35.000Z,19.49
2022-08-10T15:20:13.836Z,19.95
2022-08-10T15:22:50.164Z,19.81
2022-08-10T15:25:24.706Z,20.10
2022-08-10T15:27:57.422Z,20.24
2022-08-10T15:30:32.045Z,20.14
2022-08-10T15:33:57.558Z,20.16
2022-08-10T15:36:30.095Z,19.97
2022-08-10T15:39:01.405Z,20.03
2022-08-10T15:41:57.553Z,20.25
2022-08-10T15:44:37.869Z,20.62
2022-08-10T15:47:10.644Z,20.78
2022-08-10T15:49:45.763Z,21.13
2022-08-10T15:52:39.665Z,21.23
2022-08-10T15:55:43.844Z,21.20
2022-08-10T15:58:07.578Z,20.94
2022-08-10T16:00:40.478Z,21.05
2022-08-10T16:03:17.079Z,21.32
2022-08-10T16:06:01.876Z,21.44
2022-08-10T16:08:56.491Z,21.84
2022-08-10T16:11:42.234Z,22.03
2022-08-10T16:14:15.736Z,22.16
2022-08-10T16:16:49.416Z,22.57
2022-08-10T16:19:22.399Z,23.26
2022-08-10T16:21:58.141Z,23.42
2022-08-10T16:24:30.923Z,23.13
2022-08-10T16:27:01.846Z,23.23
2022-08-10T16:29:30.262Z,23.39
2022-08-10T16:32:03.036Z,23.26
2022-08-10T16:34:35.792Z,23.95
2022-08-10T16:37:07.095Z,23.81
2022-08-10T16:39:58.105Z,23.82
2022-08-10T16:42:28.720Z,23.68
2022-08-10T16:45:02.496Z,24.22
2022-08-10T16:47:33.971Z,24.34
2022-08-10T16:50:05.735Z,23.86
2022-08-10T16:52:34.636Z,24.29
2022-08-10T16:55:17.246Z,24.61
2022-08-10T16:57:55.364Z,25.09
2022-08-10T17:00:25.733Z,25.42
2022-08-10T17:02:59.435Z,25.49
2022-08-10T17:06:09.830Z,25.49
2022-08-10T17:08:21.792Z,25.47
2022-08-10T17:10:52.141Z,25.54
2022-08-10T17:13:23.530Z,25.68
2022-08-10T17:15:57.571Z,25.83
2022-08-10T17:18:30.277Z,26.06
2022-08-10T17:21:01.769Z,26.34
2022-08-10T17:23:33.773Z,25.99
2022-08-10T17:26:04.250Z,26.37
2022-08-10T17:28:34.673Z,26.45
2022-08-10T17:31:51.622Z,26.43
2022-08-10T17:34:01.205Z,26.99
2022-08-10T17:36:35.347Z,27.28
2022-08-10T17:39:04.499Z,27.70
2022-08-10T17:41:37.637Z,27.99
2022-08-10T17:44:06.874Z,28.15
2022-08-10T17:46:38.794Z,28.20
2022-08-10T17:49:09.053Z,28.27
2022-08-10T17:51:40.638Z,27.99
2022-08-10T17:54:15.904Z,28.54
2022-08-10T17:56:43.996Z,28.26
2022-08-10T17:59:17.478Z,28.62
2022-08-10T18:01:58.689Z,28.55
2022-08-10T18:04:41.619Z,29.18
2022-08-10T18:07:13.311Z,29.43
2022-08-10T18:09:46.602Z,29.74
2022-08-10T18:12:19.045Z,30.30
2022-08-10T18:14:51.061Z,30.06
2022-08-10T18:17:21.966Z,30.69
2022-08-10T18:19:54.275Z,30.66
2022-08-10T18:22:24.912Z,30.57
2022-08-10T18:24:53.939Z,30.86
2022-08-10T18:27:22.969Z,31.42
2022-08-10T18:30:14.548Z,31.29
2022-08-10T18:32:49.079Z,31.65
2022-08-10T18:35:18.694Z,32.08
2022-08-10T18:37:51.756Z,32.17
2022-08-10T18:40:20.624Z,31.84
2022-08-10T18:43:08.749Z,31.92
2022-08-10T18:45:57.009Z,32.18
2022-08-10T18:48:35.278Z,32.00
2022-08-10T18:51:06.382Z,32.83
2022-08-10T18:53:38.095Z,33.35
2022-08-10T18:56:19.821Z,33.11
2022-08-10T18:59:02.882Z,33.67
2022-08-10T19:01:47.505Z,33.98
2022-08-10T19:04:30.565Z,34.12
2022-08-10T19:07:29.940Z,34.61
2022-08-10T19:10:09.534Z,34.89
2022-08-10T19:12:45.613Z,35.24
2022-08-10T19:15:22.508Z,35.41
2022-08-10T19:18:06.120Z,35.55
2022-08-10T19:20:42.381Z,35.85
2022-08-10T19:23:18.759Z,35.88
2022-08-10T19:26:37.925Z,35.99
2022-08-10T19:28:55.419Z,36.43
2022-08-10T19:31:44.384Z,36.38
2022-08-10T19:34:35.393Z,37.01
2022-08-10T19:37:11.099Z,37.29
2022-08-10T19:39:54.437Z,37.16
2022-08-10T19:42:31.896Z,37.37
2022-08-10T19:45:07.584Z,37.59
2022-08-10T19:47:42.098Z,37.79
2022-08-10T19:50:15.094Z,37.69
2022-08-10T19:52:50.529Z,37.92
2022-08-10T19:55:26.364Z,38.08
2022-08-10T19:58:00.875Z,38.33
2022-08-10T20:00:41.947Z,38.45
2022-08-10T20:03:17.930Z,38.67
2022-08-10T20:06:13.081Z,38.70
2022-08-10T20:08:48.005Z,39.19
2022-08-10T20:11:45.243Z,39.20
2022-08-10T20:14:21.536Z,39.25
2022-08-10T20:16:53.477Z,39.44
2022-08-10T20:19:52.736Z,40.03
2022-08-10T20:22:29.579Z,40.06
2022-08-10T20:25:02.933Z,40.37
2022-08-10T20:28:14.596Z,40.50
2022-08-10T20:30:29.917Z,40.95
2022-08-10T20:33:01.734Z,41.23
2022-08-10T20:35:41.136Z,41.26
2022-08-10T20:38:11.612Z,41.21
2022-08-10T20:40:45.201Z,41.70
2022-08-10T20:43:22.241Z,41.82
2022-08-10T20:46:08.473Z,41.79
2022-08-10T20:48:43.346Z,41.96
2022-08-10T20:51:16.023Z,42.21
2022-08-10T20:53:49.284Z,42.25
2022-08-10T20:56:27.701Z,42.46
2022-08-10T20:59:09.266Z,42.22
2022-08-10T21:02:01.534Z,42.33
2022-08-10T21:04:48.821Z,42.41
2022-08-10T21:08:00.349Z,42.48
2022-08-10T21:10:39.020Z,42.93
2022-08-10T21:13:22.186Z,42.53
2022-08-10T21:16:04.481Z,43.10
2022-08-10T21:18:59.790Z,43.29
2022-08-10T21:21:59.538Z,43.25
2022-08-10T21:24:36.457Z,43.68
2022-08-10T21:27:13.248Z,44.01
2022-08-10T21:29:55.989Z,43.93
2022-08-10T21:32:39.159Z,44.08
2022-08-10T21:35:37.807Z,44.26
2022-08-10T21:38:12.258Z,44.40
2022-08-10T21:41:56.959Z,44.85
2022-08-10T21:44:49.420Z,45.14
2022-08-10T21:48:16.455Z,45.34
2022-08-10T21:51:05.944Z,45.70
2022-08-10T21:53:57.527Z,45.92
2022-08-10T21:56:50.463Z,45.97
2022-08-10T21:59:46.168Z,46.74
2022-08-10T22:02:40.854Z,46.75
2022-08-10T22:05:38.988Z,46.90
2022-08-10T22:08:28.209Z,47.12
2022-08-10T22:11:16.193Z,47.24
2022-08-10T22:18:03.417Z,47.30
2022-08-10T22:20:25.045Z,47.88
2022-08-10T22:23:38.633Z,47.84
2022-08-10T22:26:37.786Z,47.77
2022-08-10T22:29:43.049Z,48.05
2022-08-10T22:31:29.054Z,47.25
2022-08-10T22:32:36.473Z,47.93
2022-08-10T22:35:41.744Z,48.00
2022-08-10T22:38:38.496Z,47.95
2022-08-10T22:41:32.301Z,48.57
2022-08-10T22:44:19.858Z,48.82
2022-08-10T22:47:06.908Z,48.99
2022-08-10T22:49:34.308Z,49.11
2022-08-10T22:52:09.666Z,49.48
2022-08-10T22:55:03.878Z,49.66
2022-08-10T22:57:51.116Z,50.13
2022-08-10T23:00:29.454Z,50.28
2022-08-10T23:03:08.759Z,50.53
2022-08-10T23:05:39.459Z,50.58
2022-08-10T23:08:29.492Z,50.94
2022-08-10T23:11:03.947Z,51.35
2022-08-10T23:13:38.574Z,51.67
2022-08-10T23:16:32.772Z,51.83
2022-08-10T23:19:11.231Z,51.97
2022-08-10T23:22:03.111Z,52.33
2022-08-10T23:24:37.134Z,52.39
2022-08-10T23:27:12.050Z,52.51
2022-08-10T23:30:10.706Z,52.60
2022-08-10T23:32:38.738Z,52.92
2022-08-10T23:36:29.742Z,52.99
2022-08-10T23:38:02.953Z,53.45
2022-08-10T23:40:31.335Z,53.59
2022-08-10T23:43:00.726Z,53.74
2022-08-10T23:45:53.861Z,53.97
2022-08-10T23:48:24.093Z,54.03
2022-08-10T23:50:58.583Z,54.28
2022-08-10T23:53:30.075Z,54.63
2022-08-10T23:56:08.978Z,54.68
2022-08-10T23:58:41.062Z,54.80
